Thunderstorms From: 15-12-2017 06:00 Until: 16-12-2017 06:00 warning for: Thunderstorms Level: Yellow info button

Although rather usual in this region, locally or potentially dangerous phenomena are expected. (such as local winds, summer thunderstorms, rising streams or high waves) Be aware and pay attention to the latest weather updates, especially if you carry out activities exposed to weather or close to a stream or shoreline. 


Meteo18 Weather Cam more information Meteo18 Weather Cam


warning for Thunderstorms more information blitzortung!


Rain radar more information rain snow radar


Visit our other weather sites:

Template documentation
and downloads

And another site



Weather Underground History page Text

Daily Summary for May 22, 2017 Units:  English    Metric   Both
« Previous Day
Next Day »
Daily Weekly Monthly Yearly Custom
  High: Low: Average:
Temperature: 79.9 °F 49.3 °F 66 °F
Dew Point: 61 °F 45.7 °F 53.1 °F
Humidity: 88 % 37 % 66 %
Wind Speed: 8 mph 0 mph 1.8 mph
Wind Gust: 11 mph - -
Wind:- - SSW
Pressure: 30.1 in 30 in -
Precipitation: 0 in    
Historical Graphs
 
 
Tabular Data for May 22, 2017
Time Temperature Dew Point Pressure Wind Wind Speed Wind Gust Humidity Rainfall Rate (Hourly)
00:02 57.9 °F 49.3 °F 30.1 in ENE 2 mph 4 mph 73 % 0 in
00:07 57.7 °F 49.1 °F 30.1 in Calm   4 mph 73 % 0 in
00:12 57.6 °F 48.9 °F 30.1 in NE 1 mph 4 mph 73 % 0 in
00:17 57.4 °F 49.1 °F 30.1 in NE 1 mph 4 mph 74 % 0 in
00:22 57 °F 49.1 °F 30.1 in Calm   3 mph 75 % 0 in
00:27 56.8 °F 48.9 °F 30.1 in NE 1 mph 3 mph 75 % 0 in
00:32 56.8 °F 48.9 °F 30.1 in NE 2 mph 2 mph 75 % 0 in
00:37 57 °F 49.1 °F 30.1 in Calm   2 mph 75 % 0 in
00:42 56.8 °F 48.9 °F 30.1 in NE 1 mph 3 mph 75 % 0 in
00:52 56.5 °F 48.9 °F 30.1 in NE 1 mph 3 mph 76 % 0 in
00:57 56.1 °F 48.7 °F 30.1 in NE 1 mph 3 mph 76 % 0 in
01:02 56.1 °F 48.7 °F 30.1 in ENE 1 mph 3 mph 76 % 0 in
01:12 55.8 °F 48.4 °F 30.1 in Calm   3 mph 76 % 0 in
01:17 54.9 °F 48.2 °F 30.1 in WNW 1 mph 3 mph 78 % 0 in
01:22 54.7 °F 48.4 °F 30.1 in Calm   3 mph 79 % 0 in
01:32 54.7 °F 48.4 °F 30.1 in Calm   1 mph 79 % 0 in
01:37 54.1 °F 47.8 °F 30.1 in Calm   1 mph 79 % 0 in
01:42 53.4 °F 47.7 °F 30.1 in WNW 1 mph 1 mph 81 % 0 in
01:52 53.1 °F 48 °F 30.1 in Calm   1 mph 83 % 0 in
01:57 52.7 °F 47.7 °F 30.1 in Calm   1 mph 83 % 0 in
02:02 52 °F 47.7 °F 30.1 in Calm   1 mph 85 % 0 in
02:12 52.3 °F 48 °F 30.1 in Calm   1 mph 85 % 0 in
02:17 52.3 °F 47.7 °F 30.1 in Calm   1 mph 84 % 0 in
02:22 52.3 °F 48 °F 30.1 in Calm   1 mph 85 % 0 in
02:32 52 °F 47.3 °F 30.1 in Calm   1 mph 84 % 0 in
02:37 52 °F 47.7 °F 30.1 in WNW 1 mph 1 mph 85 % 0 in
02:42 52 °F 47.7 °F 30.1 in Calm   1 mph 85 % 0 in
02:47 52.2 °F 47.8 °F 30.1 in Calm   1 mph 85 % 0 in
02:52 52.3 °F 47.3 °F 30.1 in Calm   1 mph 83 % 0 in
03:02 52.5 °F 47.5 °F 30.1 in North 1 mph 1 mph 83 % 0 in
03:12 52.9 °F 47.5 °F 30.1 in North 1 mph 2 mph 82 % 0 in
03:17 52.9 °F 47.5 °F 30.1 in Calm   2 mph 82 % 0 in
03:22 52.7 °F 47.3 °F 30.1 in North 1 mph 2 mph 82 % 0 in
03:32 52.5 °F 47.1 °F 30.1 in Calm   3 mph 82 % 0 in
03:42 52.5 °F 47.5 °F 30.1 in Calm   2 mph 83 % 0 in
03:52 52.5 °F 47.1 °F 30 in Calm   2 mph 82 % 0 in
03:57 52.5 °F 47.1 °F 30 in NNE 1 mph 2 mph 82 % 0 in
04:02 52.5 °F 46.9 °F 30 in North 2 mph 2 mph 81 % 0 in
04:07 52.3 °F 46.8 °F 30 in NNE 1 mph 3 mph 81 % 0 in
04:17 51.6 °F 46.2 °F 30 in Calm   4 mph 82 % 0 in
04:22 51.1 °F 46.4 °F 30 in Calm   4 mph 84 % 0 in
04:32 50.7 °F 46.4 °F 30 in Calm   2 mph 85 % 0 in
04:37 50.7 °F 46.4 °F 30 in Calm     85 % 0 in
04:42 50.7 °F 46.8 °F 30 in Calm     86 % 0 in
04:47 50.7 °F 46.8 °F 30 in Calm     86 % 0 in
04:52 50.7 °F 46.8 °F 30 in Calm     86 % 0 in
05:02 50.4 °F 46.4 °F 30 in Calm     86 % 0 in
05:12 50.2 °F 46.2 °F 30 in Calm     86 % 0 in
05:17 50.2 °F 46.4 °F 30 in Calm     87 % 0 in
05:22 50.4 °F 46.4 °F 30 in Calm     86 % 0 in
05:32 50.4 °F 46.4 °F 30 in Calm     86 % 0 in
05:37 50.2 °F 46.2 °F 30 in Calm     86 % 0 in
05:42 50.4 °F 46.6 °F 30 in Calm     87 % 0 in
05:47 50.4 °F 46.4 °F 30 in Calm     86 % 0 in
05:52 50.2 °F 46.2 °F 30 in Calm     86 % 0 in
06:02 50 °F 46.2 °F 30 in NNW 1 mph   87 % 0 in
06:07 49.8 °F 46 °F 30 in North 1 mph 2 mph 87 % 0 in
06:12 49.5 °F 45.7 °F 30 in Calm   2 mph 87 % 0 in
06:17 49.5 °F 46 °F 30 in Calm   2 mph 88 % 0 in
06:22 49.3 °F 45.9 °F 30 in Calm   2 mph 88 % 0 in
06:32 49.8 °F 46.4 °F 30 in Calm   1 mph 88 % 0 in
06:42 50.2 °F 46.8 °F 30 in Calm   1 mph 88 % 0 in
06:47 50.9 °F 47.5 °F 30 in Calm   1 mph 88 % 0 in
06:52 51.6 °F 47.3 °F 30 in Calm   1 mph 85 % 0 in
07:02 52.3 °F 47.7 °F 30 in Calm   2 mph 84 % 0 in
07:12 52.5 °F 47.5 °F 30 in Calm   2 mph 83 % 0 in
07:17 52.5 °F 47.8 °F 30 in North 1 mph 2 mph 84 % 0 in
07:22 53.1 °F 48.4 °F 30 in Calm   2 mph 84 % 0 in
07:32 54.1 °F 48.4 °F 30 in NNE 1 mph 2 mph 81 % 0 in
07:42 54.7 °F 48.9 °F 30 in NNE 1 mph 2 mph 81 % 0 in
07:47 54.7 °F 48.9 °F 30 in NE 1 mph 3 mph 81 % 0 in
07:52 54.9 °F 49.5 °F 30 in NE 2 mph 3 mph 82 % 0 in
07:57 55 °F 50 °F 30 in NE 3 mph 3 mph 83 % 0 in
08:02 55.2 °F 50.2 °F 30 in Calm   3 mph 83 % 0 in
08:12 55.9 °F 50.9 °F 30 in NE 2 mph 5 mph 83 % 0 in
08:22 56.8 °F 51.4 °F 30 in Calm   4 mph 82 % 0 in
08:32 58.5 °F 52.3 °F 30 in Calm   3 mph 80 % 0 in
08:37 59 °F 51.8 °F 30 in Calm   1 mph 77 % 0 in
08:42 59.2 °F 52.3 °F 30 in NE 1 mph 1 mph 78 % 0 in
08:52 60.4 °F 52.9 °F 30 in East 1 mph 2 mph 76 % 0 in
09:02 61.7 °F 53.8 °F 30 in Calm   5 mph 75 % 0 in
09:12 62.8 °F 52.5 °F 30 in East 2 mph 4 mph 69 % 0 in
09:17 62.6 °F 53.4 °F 30.1 in Calm   4 mph 72 % 0 in
09:22 63 °F 53.4 °F 30.1 in Calm   4 mph 71 % 0 in
09:32 64 °F 54.1 °F 30.1 in SSE 1 mph 4 mph 70 % 0 in
09:42 63.9 °F 54 °F 30.1 in ESE 2 mph 3 mph 70 % 0 in
09:47 64 °F 55.2 °F 30.1 in Calm   4 mph 73 % 0 in
09:52 64.8 °F 55.2 °F 30.1 in SE 2 mph 4 mph 71 % 0 in
09:57 65.1 °F 54.3 °F 30.1 in South 2 mph 4 mph 68 % 0 in
10:02 65.3 °F 54.1 °F 30.1 in South 3 mph 4 mph 67 % 0 in
10:12 65.1 °F 54 °F 30.1 in SSW 1 mph 5 mph 67 % 0 in
10:17 65.5 °F 54.3 °F 30 in South 2 mph 6 mph 67 % 0 in
10:22 65.5 °F 53.4 °F 30.1 in South 2 mph 6 mph 65 % 0 in
10:32 65.8 °F 54.5 °F 30 in WSW 3 mph 7 mph 67 % 0 in
10:42 66.6 °F 55.2 °F 30 in SSW 1 mph 8 mph 67 % 0 in
10:52 67.1 °F 54.9 °F 30 in SSW 2 mph 6 mph 65 % 0 in
10:57 67.5 °F 55.8 °F 30 in ESE 2 mph 5 mph 66 % 0 in
11:02 67.8 °F 56.5 °F 30 in Calm   5 mph 67 % 0 in
11:12 69.1 °F 55.9 °F 30 in Calm   6 mph 63 % 0 in
11:22 69.6 °F 55.9 °F 30 in SSE 1 mph 5 mph 62 % 0 in
11:32 70 °F 55 °F 30 in SSW 2 mph 5 mph 59 % 0 in
11:42 70.9 °F 57.2 °F 30 in SW 4 mph 7 mph 62 % 0 in
11:47 70.9 °F 56.3 °F 30 in South 1 mph 7 mph 60 % 0 in
11:52 71.2 °F 56.7 °F 30 in SSW 2 mph 7 mph 60 % 0 in
12:02 71.8 °F 57.2 °F 30 in Calm   6 mph 60 % 0 in
12:12 72.1 °F 59.4 °F 30 in ESE 1 mph 4 mph 64 % 0 in
12:17 72.5 °F 56.5 °F 30 in SW 5 mph 5 mph 57 % 0 in
12:22 72.3 °F 57.2 °F 30 in Calm   4 mph 59 % 0 in
12:32 73 °F 56.5 °F 30 in SSW 2 mph 6 mph 56 % 0 in
12:42 73.2 °F 56.1 °F 30 in SSW 4 mph 8 mph 55 % 0 in
12:47 73.4 °F 55.8 °F 30 in SSW 1 mph 8 mph 54 % 0 in
12:52 73.8 °F 57.6 °F 30 in SSW 1 mph 8 mph 57 % 0 in
12:57 74.1 °F 57.4 °F 30 in WSW 2 mph 5 mph 56 % 0 in
13:02 73.4 °F 56.3 °F 30 in SW 4 mph 5 mph 55 % 0 in
13:12 73.9 °F 56.3 °F 30 in SSW 1 mph 7 mph 54 % 0 in
13:17 75 °F 57.2 °F 30 in SSW 1 mph 6 mph 54 % 0 in
13:22 75.4 °F 57 °F 30 in Calm   6 mph 53 % 0 in
13:27 74.7 °F 56.8 °F 30 in Calm   4 mph 54 % 0 in
13:32 74.8 °F 55 °F 30 in Calm   4 mph 50 % 0 in
13:37 74.8 °F 56.1 °F 30 in SSW 6 mph 6 mph 52 % 0 in
13:42 74.8 °F 57 °F 30 in East 3 mph 6 mph 54 % 0 in
13:52 75.6 °F 58.3 °F 30 in SSE 2 mph 7 mph 55 % 0 in
13:57 75.7 °F 54.7 °F 30 in South 4 mph 5 mph 48 % 0 in
14:02 75.4 °F 55.4 °F 30 in WSW 1 mph 5 mph 50 % 0 in
14:07 75.4 °F 54.9 °F 30 in WSW 5 mph 7 mph 49 % 0 in
14:12 75.6 °F 55 °F 30 in SSW 8 mph 8 mph 49 % 0 in
14:17 75.6 °F 54.5 °F 30 in SSW 6 mph 9 mph 48 % 0 in
14:22 76.1 °F 57.2 °F 30 in South 1 mph 9 mph 52 % 0 in
14:27 76.3 °F 56.8 °F 30 in South 1 mph 9 mph 51 % 0 in
14:32 76.6 °F 57.2 °F 30 in SW 4 mph 9 mph 51 % 0 in
14:37 76.5 °F 56.5 °F 30 in SW 6 mph 8 mph 50 % 0 in
14:42 76.5 °F 55.9 °F 30 in WSW 7 mph 8 mph 49 % 0 in
14:47 76.6 °F 54.3 °F 30 in SW 4 mph 10 mph 46 % 0 in
14:52 77.2 °F 54.9 °F 30 in WSW 4 mph 10 mph 46 % 0 in
14:57 77.4 °F 56.1 °F 30 in SSW 3 mph 10 mph 48 % 0 in
15:02 77.4 °F 53.1 °F 30 in South 3 mph 10 mph 43 % 0 in
15:12 77 °F 53.4 °F 30 in SSW 2 mph 10 mph 44 % 0 in
15:17 77.2 °F 55.4 °F 30 in SE 1 mph 7 mph 47 % 0 in
15:22 77.5 °F 55 °F 30 in WSW 1 mph 7 mph 46 % 0 in
15:32 77.5 °F 54 °F 30 in WSW 2 mph 7 mph 44 % 0 in
15:37 77.4 °F 53.1 °F 30 in West 2 mph 7 mph 43 % 0 in
15:42 77.5 °F 53.2 °F 30 in Calm   7 mph 43 % 0 in
15:47 78.3 °F 54.5 °F 30 in Calm   8 mph 44 % 0 in
15:52 78.6 °F 52.9 °F 30 in SW 5 mph 8 mph 41 % 0 in
15:57 78.3 °F 52 °F 30 in SW 4 mph 7 mph 40 % 0 in
16:02 78.3 °F 52.7 °F 30 in WSW 1 mph 7 mph 41 % 0 in
16:07 79.2 °F 52.2 °F 30 in SW 2 mph 8 mph 39 % 0 in
16:12 78.8 °F 53.8 °F 30 in SW 2 mph 8 mph 42 % 0 in
16:17 78.6 °F 50.2 °F 30 in West 4 mph 8 mph 37 % 0 in
16:22 78.1 °F 51.1 °F 30 in SSW 1 mph 8 mph 39 % 0 in
16:32 78.3 °F 52.7 °F 30 in SSW 2 mph 8 mph 41 % 0 in
16:37 78.8 °F 53.1 °F 30 in SE 4 mph 9 mph 41 % 0 in
16:42 78.6 °F 52.3 °F 30 in WSW 3 mph 9 mph 40 % 0 in
16:52 78.8 °F 53.8 °F 30 in WNW 2 mph 9 mph 42 % 0 in
17:02 78.8 °F 53.1 °F 30 in West 4 mph 8 mph 41 % 0 in
17:17 79 °F 53.2 °F 30 in SW 2 mph 11 mph 41 % 0 in
17:22 79.2 °F 53.4 °F 30 in West 4 mph 11 mph 41 % 0 in
17:27 79.5 °F 55 °F 30 in WSW 5 mph 10 mph 43 % 0 in
17:32 79.2 °F 53.4 °F 30 in WSW 4 mph 10 mph 41 % 0 in
17:42 79.5 °F 55 °F 30 in WSW 3 mph 7 mph 43 % 0 in
17:47 79.9 °F 54.1 °F 30 in SW 3 mph 8 mph 41 % 0 in
17:52 79.2 °F 54.7 °F 30 in SW 6 mph 8 mph 43 % 0 in
17:57 79.2 °F 54.7 °F 30 in SSW 6 mph 8 mph 43 % 0 in
18:02 79.2 °F 55.9 °F 30 in SSW 2 mph 8 mph 45 % 0 in
18:12 79.2 °F 54.1 °F 30 in WSW 4 mph 9 mph 42 % 0 in
18:17 79 °F 54 °F 30 in SW 6 mph 9 mph 42 % 0 in
18:22 79 °F 55.2 °F 30 in SW 6 mph 8 mph 44 % 0 in
18:27 79 °F 54.5 °F 30 in WNW 2 mph 8 mph 43 % 0 in
18:37 78.6 °F 54.9 °F 30 in WSW 4 mph 7 mph 44 % 0 in
18:42 78.4 °F 55.4 °F 30 in West 4 mph 6 mph 45 % 0 in
18:47 78.1 °F 53.8 °F 30 in WSW 3 mph 7 mph 43 % 0 in
18:52 77.5 °F 53.2 °F 30 in WNW 2 mph 7 mph 43 % 0 in
18:57 77.7 °F 54.1 °F 30 in West 2 mph 7 mph 44 % 0 in
19:02 77.9 °F 54.3 °F 30 in WNW 2 mph 7 mph 44 % 0 in
19:07 77.9 °F 54.3 °F 30 in West 2 mph 6 mph 44 % 0 in
19:12 77.9 °F 54.3 °F 30 in WSW 5 mph 6 mph 44 % 0 in
19:17 77.7 °F 54.7 °F 30 in WNW 2 mph 6 mph 45 % 0 in
19:22 77.4 °F 53.1 °F 30 in WSW 3 mph 6 mph 43 % 0 in
19:32 77.2 °F 55.4 °F 30 in WNW 4 mph 6 mph 47 % 0 in
19:37 77.2 °F 55.9 °F 30 in SW 1 mph 6 mph 48 % 0 in
19:42 77.2 °F 55.9 °F 30 in West 2 mph 6 mph 48 % 0 in
19:52 77.5 °F 57.4 °F 30 in West 1 mph 4 mph 50 % 0 in
19:57 77.5 °F 56.8 °F 30 in WNW 1 mph 3 mph 49 % 0 in
20:02 77.7 °F 56.5 °F 30 in WNW 1 mph 3 mph 48 % 0 in
20:12 77.7 °F 56.5 °F 30 in West 1 mph 4 mph 48 % 0 in
20:17 77.7 °F 57 °F 30 in Calm   4 mph 49 % 0 in
20:22 77.9 °F 56.7 °F 30 in WNW 1 mph 4 mph 48 % 0 in
20:32 77.2 °F 57 °F 30 in Calm   3 mph 50 % 0 in
20:37 76.5 °F 58.1 °F 30 in SW 2 mph 2 mph 53 % 0 in
20:42 75.6 °F 57.2 °F 30 in SW 4 mph 4 mph 53 % 0 in
20:47 74.7 °F 58.8 °F 30 in West 2 mph 7 mph 58 % 0 in
20:52 73.8 °F 59.9 °F 30 in SW 5 mph 7 mph 62 % 0 in
20:57 73.2 °F 60.3 °F 30 in SW 2 mph 8 mph 64 % 0 in
21:02 72.9 °F 60.4 °F 30 in SW 4 mph 8 mph 65 % 0 in
21:07 72.7 °F 60.6 °F 30 in SSW 3 mph 9 mph 66 % 0 in
21:12 72.1 °F 60.6 °F 30 in SW 4 mph 9 mph 67 % 0 in
21:17 71.8 °F 60.6 °F 30 in SW 5 mph 9 mph 68 % 0 in
21:27 70.9 °F 61 °F 30 in WSW 8 mph 8 mph 71 % 0 in
21:32 70.5 °F 61 °F 30 in WSW 4 mph 8 mph 72 % 0 in
21:37 70 °F 61 °F 30 in WSW 3 mph 8 mph 73 % 0 in
21:42 69.4 °F 60.8 °F 30 in West 3 mph 8 mph 74 % 0 in
21:47 69.1 °F 60.8 °F 30.1 in SW 3 mph 6 mph 75 % 0 in
21:52 68.7 °F 60.8 °F 30.1 in WSW 3 mph 6 mph 76 % 0 in
22:02 68.2 °F 60.6 °F 30.1 in West 2 mph 6 mph 77 % 0 in
22:12 67.8 °F 60.6 °F 30.1 in West 1 mph 5 mph 78 % 0 in
22:17 67.6 °F 60.6 °F 30.1 in West 3 mph 4 mph 78 % 0 in
22:22 67.5 °F 60.4 °F 30.1 in SW 2 mph 4 mph 78 % 0 in
22:27 67.3 °F 60.3 °F 30.1 in WSW 2 mph 5 mph 78 % 0 in
22:32 67.1 °F 60.4 °F 30.1 in West 1 mph 5 mph 79 % 0 in
22:42 66.6 °F 60.3 °F 30.1 in WSW 2 mph 4 mph 80 % 0 in
22:47 66.6 °F 60.3 °F 30.1 in WSW 1 mph 4 mph 80 % 0 in
22:52 66.4 °F 60.1 °F 30.1 in WSW 1 mph 4 mph 80 % 0 in
23:02 66.4 °F 59.7 °F 30.1 in West 3 mph 6 mph 79 % 0 in
23:07 66.6 °F 59.5 °F 30.1 in WNW 4 mph 6 mph 78 % 0 in
23:12 66.7 °F 59.4 °F 30.1 in West 3 mph 6 mph 77 % 0 in
23:17 66.7 °F 59 °F 30.1 in West 3 mph 8 mph 76 % 0 in
23:22 66.6 °F 58.8 °F 30.1 in WNW 5 mph 8 mph 76 % 0 in
23:32 66 °F 58.3 °F 30.1 in NW 5 mph 8 mph 76 % 0 in
23:42 65.8 °F 58.1 °F 30.1 in WNW 3 mph 8 mph 76 % 0 in
23:52 65.7 °F 58.3 °F 30.1 in WNW 2 mph 8 mph 77 % 0 in
Meteo18
Compliments of Weather Underground - 4 mb

Script developed by  Jim McMurry - jmcmurry@mwt.net Adapted for the template by  Wim van der Kuil - Leuven-Template.eu

You find our weather info also at:

European Weather Network

Weather Underground

Equipment we use:

Weather-station
Davis Vue

Weather-program
Meteohub

Weather-server
Raspberry PI 2 B+

Provider
1 and 1

Davis Vue

Meteohub

Raspberry PI 2 B+

1 and 1